Time;durP1;ratioP1;P1;durP2;ratioP2;P2;SDS_P1;SDS_P2;PMS_P1;PMS_P2;Temp;Humidity;BMP_temperature;BMP_pressure;BME280_temperature;BME280_humidity;BME280_pressure;Samples;Min_cycle;Max_cycle;Signal;HPM_P1;HPM_P2
2021/03/05 00:01:17;;;;;;;39.63;16.00;;;2.40;99.90;;;;;;4974719;28;20062;-76
2021/03/05 00:03:44;;;;;;;34.88;15.10;;;2.40;99.90;;;;;;4989694;28;20073;-76
2021/03/05 00:06:11;;;;;;;51.35;17.00;;;2.40;99.90;;;;;;4971633;28;20057;-76
2021/03/05 00:08:37;;;;;;;44.00;15.50;;;2.40;99.90;;;;;;4972213;28;20082;-76
2021/03/05 00:11:04;;;;;;;43.30;17.35;;;2.40;99.90;;;;;;4971949;28;20054;-76
2021/03/05 00:13:30;;;;;;;45.38;17.50;;;2.30;99.90;;;;;;4971859;28;20053;-77
2021/03/05 00:15:57;;;;;;;49.05;18.80;;;2.20;99.90;;;;;;4971301;28;20053;-76
2021/03/05 00:18:23;;;;;;;50.38;17.92;;;2.20;99.90;;;;;;4988807;28;20599;-76
2021/03/05 00:20:53;;;;;;;42.00;17.23;;;2.10;99.90;;;;;;4971638;28;20058;-75
2021/03/05 00:23:20;;;;;;;53.47;17.90;;;2.20;99.90;;;;;;4988062;28;20050;-77
2021/03/05 00:25:48;;;;;;;54.22;19.52;;;2.20;99.90;;;;;;4969973;28;20047;-77
2021/03/05 00:28:17;;;;;;;156.05;24.90;;;2.10;99.90;;;;;;4957274;28;20077;-76
2021/03/05 00:30:44;;;;;;;45.30;18.40;;;2.10;99.90;;;;;;5004916;28;20038;-77
2021/03/05 00:33:10;;;;;;;35.83;18.98;;;2.20;99.90;;;;;;4988932;28;20069;-79
2021/03/05 00:35:51;;;;;;;39.42;19.13;;;2.10;99.90;;;;;;4987711;28;20510;-76
2021/03/05 00:38:18;;;;;;;33.80;16.63;;;2.10;99.90;;;;;;5004403;28;20046;-75
2021/03/05 00:40:44;;;;;;;25.02;13.85;;;2.10;99.90;;;;;;4987850;28;20043;-76
2021/03/05 00:43:11;;;;;;;22.90;12.20;;;2.00;99.90;;;;;;4970966;28;20050;-76
2021/03/05 00:45:37;;;;;;;27.38;15.43;;;2.00;99.90;;;;;;4971590;28;20077;-76
2021/03/05 00:48:04;;;;;;;29.85;15.40;;;2.00;99.90;;;;;;4988089;28;20061;-75
2021/03/05 00:50:31;;;;;;;27.08;16.42;;;2.00;99.90;;;;;;4989888;28;20470;-76
2021/03/05 00:52:59;;;;;;;24.98;13.43;;;2.00;99.90;;;;;;4961335;28;20121;-76
2021/03/05 00:55:27;;;;;;;18.67;10.98;;;1.90;99.90;;;;;;4955410;28;20043;-76
2021/03/05 00:57:59;;;;;;;23.33;13.60;;;1.80;99.90;;;;;;4971563;28;20076;-76
2021/03/05 01:00:27;;;;;;;24.98;14.48;;;1.70;99.90;;;;;;4987137;28;21312;-76
2021/03/05 01:02:53;;;;;;;27.23;15.27;;;1.80;99.90;;;;;;4971005;28;20050;-76
2021/03/05 01:05:20;;;;;;;28.70;15.65;;;1.80;99.90;;;;;;4970941;28;20618;-76
2021/03/05 01:07:47;;;;;;;26.65;15.00;;;1.70;99.90;;;;;;4971059;28;20478;-77
2021/03/05 01:10:23;;;;;;;28.95;16.55;;;1.70;99.90;;;;;;4972496;28;20413;-76
2021/03/05 01:12:50;;;;;;;31.02;16.00;;;1.70;99.90;;;;;;4971772;28;20053;-76
2021/03/05 01:15:16;;;;;;;24.77;14.70;;;1.70;99.90;;;;;;4954954;28;20053;-76
2021/03/05 01:17:42;;;;;;;36.95;17.80;;;1.70;99.90;;;;;;4971506;28;20530;-76
2021/03/05 01:20:14;;;;;;;30.17;18.30;;;1.70;99.90;;;;;;4982719;28;20056;-76
2021/03/05 01:22:41;;;;;;;23.50;12.35;;;1.60;99.90;;;;;;5006698;28;20510;-76
2021/03/05 01:25:14;;;;;;;30.50;15.70;;;1.60;99.90;;;;;;5005598;28;20066;-75
2021/03/05 01:27:41;;;;;;;30.73;17.55;;;1.60;99.90;;;;;;4979409;28;20148;-76
2021/03/05 01:30:08;;;;;;;31.52;16.13;;;1.60;99.90;;;;;;4964127;28;20055;-77
2021/03/05 01:32:35;;;;;;;31.60;17.85;;;1.60;99.90;;;;;;4969906;28;20043;-76
2021/03/05 01:35:07;;;;;;;27.63;16.17;;;1.70;99.90;;;;;;4985329;28;20138;-75
2021/03/05 01:37:33;;;;;;;31.60;18.10;;;1.70;99.90;;;;;;4982734;28;20058;-75
2021/03/05 01:40:00;;;;;;;31.88;18.17;;;1.70;99.90;;;;;;4972199;28;20050;-76
2021/03/05 01:42:26;;;;;;;32.45;18.88;;;1.70;99.90;;;;;;4969573;28;20140;-76
2021/03/05 01:44:52;;;;;;;35.08;19.42;;;1.80;99.90;;;;;;4954280;28;20058;-77
2021/03/05 01:47:19;;;;;;;30.63;17.20;;;1.80;99.90;;;;;;4954238;28;20133;-76
2021/03/05 01:49:45;;;;;;;33.25;18.80;;;1.80;99.90;;;;;;4989329;28;20459;-75
2021/03/05 01:52:11;;;;;;;28.88;16.60;;;1.70;99.90;;;;;;4984865;28;20511;-78
2021/03/05 01:54:38;;;;;;;28.20;15.30;;;1.70;99.90;;;;;;4987335;28;20038;-76
2021/03/05 01:57:05;;;;;;;36.20;19.65;;;1.70;99.90;;;;;;4970276;28;20050;-77
2021/03/05 01:59:32;;;;;;;35.30;18.20;;;1.70;99.90;;;;;;4971042;28;20073;-76
2021/03/05 02:02:02;;;;;;;40.00;19.25;;;1.70;99.90;;;;;;4985948;28;20054;-76
2021/03/05 02:04:28;;;;;;;37.92;19.55;;;1.60;99.90;;;;;;4986102;28;20437;-76
2021/03/05 02:07:08;;;;;;;34.55;17.50;;;1.60;99.90;;;;;;4968629;28;20057;-76
2021/03/05 02:09:35;;;;;;;35.77;18.93;;;1.60;99.90;;;;;;4985890;28;20065;-76
2021/03/05 02:12:05;;;;;;;35.15;20.10;;;1.60;99.90;;;;;;4985258;28;20046;-76
2021/03/05 02:14:33;;;;;;;38.58;19.77;;;1.60;99.90;;;;;;4969492;28;20137;-76
2021/03/05 02:17:16;;;;;;;34.83;19.08;;;1.60;99.90;;;;;;4985415;28;20069;-75
2021/03/05 02:20:10;;;;;;;40.78;20.10;;;1.60;99.90;;;;;;4966930;28;20038;-75
2021/03/05 02:22:56;;;;;;;35.13;19.27;;;1.60;99.90;;;;;;4969894;28;20054;-76
2021/03/05 02:25:40;;;;;;;37.10;19.33;;;1.60;99.90;;;;;;4982872;28;20507;-76
2021/03/05 02:28:18;;;;;;;34.83;19.85;;;1.60;99.90;;;;;;4970206;28;20050;-75
2021/03/05 02:31:03;;;;;;;39.42;22.05;;;1.60;99.90;;;;;;4969290;28;20050;-75
2021/03/05 02:33:48;;;;;;;35.92;20.35;;;1.70;99.90;;;;;;4984835;28;20062;-75
2021/03/05 02:36:20;;;;;;;37.50;19.15;;;1.70;99.90;;;;;;4969284;28;20051;-76
2021/03/05 02:39:37;;;;;;;34.60;20.13;;;1.60;99.90;;;;;;4969638;28;20038;-75
2021/03/05 02:42:08;;;;;;;38.78;20.23;;;1.60;99.90;;;;;;4973155;28;20054;-76
2021/03/05 02:44:49;;;;;;;38.65;21.02;;;1.70;99.90;;;;;;4986989;28;20054;-76
2021/03/05 02:47:20;;;;;;;36.22;20.25;;;1.70;99.90;;;;;;4985257;28;20056;-76
2021/03/05 02:49:51;;;;;;;37.92;19.73;;;1.70;99.90;;;;;;4985446;28;20099;-75
2021/03/05 02:52:20;;;;;;;42.05;23.27;;;1.70;99.90;;;;;;4984373;28;20046;-75
2021/03/05 02:54:57;;;;;;;37.58;20.88;;;1.70;99.90;;;;;;4984702;28;20055;-76
2021/03/05 02:57:28;;;;;;;42.75;23.08;;;1.70;99.90;;;;;;4985329;28;20156;-76
2021/03/05 02:59:56;;;;;;;40.40;22.80;;;1.70;99.90;;;;;;4975987;28;20038;-76
2021/03/05 03:02:25;;;;;;;38.65;21.38;;;1.70;99.90;;;;;;4982009;28;20053;-78
2021/03/05 03:04:55;;;;;;;34.65;20.67;;;1.70;99.90;;;;;;4952781;28;20070;-76
2021/03/05 03:07:25;;;;;;;38.47;16.83;;;1.60;99.90;;;;;;4984807;28;20096;-75
2021/03/05 03:09:52;;;;;;;31.23;16.42;;;1.60;99.90;;;;;;4985106;28;20046;-75
2021/03/05 03:12:21;;;;;;;35.88;17.48;;;1.60;99.90;;;;;;4983929;28;20050;-76
2021/03/05 03:14:48;;;;;;;27.38;16.27;;;1.50;99.90;;;;;;4985502;28;20104;-76
2021/03/05 03:17:15;;;;;;;28.98;16.10;;;1.50;99.90;;;;;;4985040;28;20419;-75
2021/03/05 03:19:50;;;;;;;28.23;15.93;;;1.40;99.90;;;;;;4968907;28;20176;-75
2021/03/05 03:22:17;;;;;;;25.90;14.65;;;1.40;99.90;;;;;;4983680;28;20054;-76
2021/03/05 03:24:45;;;;;;;24.42;14.40;;;1.40;99.90;;;;;;4984114;28;20042;-76
2021/03/05 03:27:11;;;;;;;27.83;16.52;;;1.40;99.90;;;;;;4969171;28;20038;-76
2021/03/05 03:29:41;;;;;;;25.73;14.75;;;1.40;99.90;;;;;;4969935;28;20751;-76
2021/03/05 03:32:10;;;;;;;25.80;15.25;;;1.40;99.90;;;;;;4984518;28;20046;-76
2021/03/05 03:34:41;;;;;;;24.23;14.60;;;1.30;99.90;;;;;;4985901;28;20141;-76
2021/03/05 03:37:09;;;;;;;25.20;14.48;;;1.30;99.90;;;;;;4969002;28;20503;-76
2021/03/05 03:39:36;;;;;;;29.10;14.45;;;1.30;99.90;;;;;;4983496;28;20046;-76
2021/03/05 03:42:03;;;;;;;25.80;14.85;;;1.30;99.90;;;;;;4984240;28;20045;-77
2021/03/05 03:44:29;;;;;;;27.23;15.85;;;1.20;99.90;;;;;;4985859;28;20133;-76
2021/03/05 03:46:57;;;;;;;22.05;13.77;;;1.30;99.90;;;;;;4968800;28;20520;-76
2021/03/05 03:49:49;;;;;;;21.88;13.55;;;1.30;99.90;;;;;;4985258;28;20350;-76
2021/03/05 03:52:33;;;;;;;24.95;13.50;;;1.30;99.90;;;;;;4971453;28;20061;-77
2021/03/05 03:55:00;;;;;;;20.73;12.98;;;1.30;99.90;;;;;;4967385;28;20034;-76
2021/03/05 03:57:28;;;;;;;24.90;14.43;;;1.20;99.90;;;;;;4985366;28;20428;-76
2021/03/05 03:59:57;;;;;;;26.73;14.57;;;1.20;99.90;;;;;;4952698;28;20056;-76
2021/03/05 04:02:29;;;;;;;26.25;13.32;;;1.20;99.90;;;;;;4982465;28;20049;-74
2021/03/05 04:05:00;;;;;;;26.35;14.70;;;1.30;99.90;;;;;;4968270;28;20038;-76
2021/03/05 04:07:29;;;;;;;22.80;14.02;;;1.30;99.90;;;;;;4968114;28;20042;-76
2021/03/05 04:09:57;;;;;;;23.00;12.70;;;1.40;99.90;;;;;;4968851;28;20046;-77
2021/03/05 04:12:26;;;;;;;26.42;14.60;;;1.40;99.90;;;;;;4999623;28;20046;-76
2021/03/05 04:14:54;;;;;;;23.52;13.75;;;1.40;99.90;;;;;;4985321;28;20171;-77
2021/03/05 04:17:21;;;;;;;21.75;14.43;;;1.40;99.90;;;;;;4968460;28;20063;-76
2021/03/05 04:19:49;;;;;;;26.50;15.45;;;1.40;99.90;;;;;;4956077;28;20047;-77
2021/03/05 04:22:18;;;;;;;28.33;15.95;;;1.20;99.90;;;;;;4966701;28;20052;-77
2021/03/05 04:24:45;;;;;;;30.85;16.63;;;1.20;99.90;;;;;;4965220;28;20507;-75
2021/03/05 04:27:11;;;;;;;31.90;16.80;;;1.10;99.90;;;;;;4965700;28;20546;-76
2021/03/05 04:29:38;;;;;;;30.25;16.63;;;1.10;99.90;;;;;;4985050;28;20058;-75
2021/03/05 04:32:05;;;;;;;25.67;14.82;;;1.20;99.90;;;;;;4999092;28;20146;-76
2021/03/05 04:34:32;;;;;;;26.05;15.57;;;1.10;99.90;;;;;;4982422;28;20050;-75
2021/03/05 04:36:58;;;;;;;25.50;16.52;;;1.00;99.90;;;;;;4958822;28;20039;-76
2021/03/05 04:39:25;;;;;;;31.02;17.17;;;1.00;99.90;;;;;;4987677;28;20639;-76
2021/03/05 04:41:51;;;;;;;27.85;15.98;;;1.00;99.90;;;;;;4986784;28;20034;-76
2021/03/05 04:44:18;;;;;;;27.02;16.67;;;0.90;99.90;;;;;;4987448;28;20060;-76
2021/03/05 04:46:44;;;;;;;27.02;15.02;;;1.00;99.90;;;;;;4970497;28;20503;-76
2021/03/05 04:49:11;;;;;;;23.75;15.75;;;0.90;99.90;;;;;;4970283;28;20200;-76
2021/03/05 04:51:37;;;;;;;31.80;17.65;;;0.90;99.90;;;;;;4974431;28;20062;-76
2021/03/05 04:54:04;;;;;;;23.17;13.23;;;0.90;99.90;;;;;;4966926;28;20064;-76
2021/03/05 04:56:30;;;;;;;25.23;15.13;;;0.90;99.90;;;;;;4967055;28;20050;-75
2021/03/05 04:58:56;;;;;;;23.23;15.30;;;0.90;99.90;;;;;;4968273;28;20047;-75
2021/03/05 05:01:23;;;;;;;25.17;14.98;;;0.80;99.90;;;;;;4966727;28;20053;-76
2021/03/05 05:03:49;;;;;;;20.73;13.90;;;0.70;99.90;;;;;;4951124;28;20110;-76
2021/03/05 05:06:15;;;;;;;26.10;14.20;;;0.70;99.90;;;;;;4968674;28;20529;-76
2021/03/05 05:08:42;;;;;;;20.98;13.50;;;0.70;99.90;;;;;;4964606;28;20555;-76
2021/03/05 05:11:08;;;;;;;23.08;14.85;;;0.70;99.90;;;;;;4960450;28;20050;-75
2021/03/05 05:13:34;;;;;;;24.92;13.98;;;0.80;99.90;;;;;;4985312;28;20388;-76
2021/03/05 05:16:01;;;;;;;21.58;13.43;;;0.70;99.90;;;;;;4953545;28;20066;-75
2021/03/05 05:18:28;;;;;;;17.77;12.90;;;0.70;99.90;;;;;;4970418;28;20054;-75
2021/03/05 05:20:54;;;;;;;21.52;14.30;;;0.60;99.90;;;;;;4994707;28;20054;-76
2021/03/05 05:23:21;;;;;;;27.75;13.45;;;0.60;99.90;;;;;;4985842;28;20082;-76
2021/03/05 05:25:47;;;;;;;21.75;14.68;;;0.60;99.90;;;;;;4985283;28;20052;-76
2021/03/05 05:28:15;;;;;;;21.98;13.82;;;0.60;99.90;;;;;;4986065;28;20507;-76
2021/03/05 05:30:41;;;;;;;19.27;13.35;;;0.70;99.90;;;;;;4969835;28;20046;-75
2021/03/05 05:33:07;;;;;;;20.58;13.35;;;0.80;99.90;;;;;;4985144;28;20058;-75
2021/03/05 05:35:34;;;;;;;18.65;12.32;;;0.60;99.90;;;;;;4984372;28;20416;-76
2021/03/05 05:38:00;;;;;;;19.67;12.88;;;0.60;99.90;;;;;;4958090;28;20046;-76
2021/03/05 05:40:29;;;;;;;18.02;11.82;;;0.50;99.90;;;;;;4986411;28;20080;-76
2021/03/05 05:42:55;;;;;;;18.55;11.88;;;0.60;99.90;;;;;;4970229;28;20042;-76
2021/03/05 05:45:22;;;;;;;26.80;13.25;;;0.60;99.90;;;;;;4954032;28;20420;-74
2021/03/05 05:47:52;;;;;;;27.00;12.10;;;0.60;99.90;;;;;;4969589;28;20062;-75
2021/03/05 05:50:19;;;;;;;18.80;11.00;;;0.40;99.90;;;;;;4984814;28;20058;-76
2021/03/05 05:52:49;;;;;;;30.95;14.80;;;0.40;99.90;;;;;;4987021;28;20416;-76
2021/03/05 05:55:15;;;;;;;22.05;13.38;;;0.40;99.90;;;;;;4985195;28;20050;-76
2021/03/05 05:57:43;;;;;;;27.35;16.08;;;0.40;99.90;;;;;;4969709;28;20044;-76
2021/03/05 06:00:10;;;;;;;27.88;14.13;;;0.30;99.90;;;;;;4985463;28;20052;-76
2021/03/05 06:02:39;;;;;;;23.30;13.27;;;0.30;99.90;;;;;;4969660;28;20427;-75
2021/03/05 06:05:07;;;;;;;28.10;16.23;;;0.30;99.90;;;;;;4985860;28;20408;-75
2021/03/05 06:07:34;;;;;;;26.38;13.68;;;0.30;99.90;;;;;;4969521;28;20039;-76
2021/03/05 06:10:06;;;;;;;27.67;16.30;;;0.30;99.90;;;;;;4975973;28;20573;-76
2021/03/05 06:12:34;;;;;;;24.55;14.20;;;0.30;99.90;;;;;;4986360;28;20046;-75
2021/03/05 06:15:00;;;;;;;23.23;14.77;;;0.30;99.90;;;;;;4969497;28;20502;-75
2021/03/05 06:17:45;;;;;;;26.45;15.10;;;0.20;99.90;;;;;;4969417;28;20050;-75
2021/03/05 06:20:13;;;;;;;22.20;14.98;;;0.30;99.90;;;;;;4986756;28;20046;-76
2021/03/05 06:22:40;;;;;;;23.13;15.13;;;0.30;99.90;;;;;;4999274;28;20105;-75
2021/03/05 06:25:08;;;;;;;20.45;14.50;;;0.20;99.90;;;;;;4992749;28;20704;-75
2021/03/05 06:27:36;;;;;;;25.08;14.98;;;0.20;99.90;;;;;;4984010;28;20047;-76
2021/03/05 06:30:07;;;;;;;31.25;15.90;;;0.10;99.90;;;;;;4954386;28;20045;-76
2021/03/05 06:32:44;;;;;;;20.60;13.65;;;0.10;99.90;;;;;;4970233;28;20046;-76
2021/03/05 06:35:22;;;;;;;21.35;13.93;;;0.10;99.90;;;;;;4991676;28;20142;-76
2021/03/05 06:37:49;;;;;;;26.00;14.20;;;0.20;99.90;;;;;;4981046;28;20126;-76
2021/03/05 06:40:24;;;;;;;27.92;14.45;;;0.20;99.90;;;;;;4967326;28;20047;-75
2021/03/05 06:42:55;;;;;;;24.00;13.55;;;0.10;99.90;;;;;;4985394;28;20038;-75
2021/03/05 06:45:25;;;;;;;23.60;14.77;;;0.10;99.90;;;;;;4969115;28;20133;-76
2021/03/05 06:48:09;;;;;;;25.67;15.85;;;0.10;99.90;;;;;;4985723;28;20042;-75
2021/03/05 06:50:42;;;;;;;21.13;14.18;;;0.00;99.90;;;;;;4984976;28;20062;-76
2021/03/05 06:53:35;;;;;;;23.83;14.60;;;0.00;99.90;;;;;;4984082;28;20177;-76
2021/03/05 06:56:01;;;;;;;38.25;15.75;;;0.00;99.90;;;;;;4983873;28;20034;-76
2021/03/05 06:58:28;;;;;;;22.75;15.35;;;0.00;99.90;;;;;;4956157;28;20396;-77
2021/03/05 07:01:02;;;;;;;21.70;14.32;;;0.00;99.90;;;;;;4991510;28;20039;-76
2021/03/05 07:03:29;;;;;;;21.70;15.38;;;0.00;99.90;;;;;;4984854;28;20042;-76
2021/03/05 07:05:55;;;;;;;46.67;17.88;;;-0.10;99.90;;;;;;4989158;28;20057;-76
2021/03/05 07:08:41;;;;;;;23.13;15.05;;;-0.10;99.90;;;;;;4968905;28;20220;-76
2021/03/05 07:11:38;;;;;;;19.92;13.65;;;-0.10;99.90;;;;;;4969343;28;20058;-77
2021/03/05 07:14:10;;;;;;;27.00;14.75;;;-0.10;99.90;;;;;;4980348;28;20593;-76
2021/03/05 07:16:41;;;;;;;21.65;14.35;;;0.00;99.90;;;;;;4967823;28;20050;-77
2021/03/05 07:19:08;;;;;;;24.30;14.93;;;0.00;99.90;;;;;;4973724;28;20430;-76
2021/03/05 07:21:49;;;;;;;21.55;14.57;;;0.00;99.90;;;;;;4998850;28;20038;-75
2021/03/05 07:24:17;;;;;;;25.80;15.60;;;0.00;99.90;;;;;;4996886;28;20487;-76
2021/03/05 07:26:56;;;;;;;17.95;13.65;;;0.10;99.90;;;;;;4967586;28;20442;-76
2021/03/05 07:29:25;;;;;;;26.38;17.13;;;0.20;99.90;;;;;;4953019;28;20682;-76
2021/03/05 07:32:06;;;;;;;24.15;16.95;;;0.10;99.90;;;;;;4964163;28;20117;-75
2021/03/05 07:34:56;;;;;;;22.85;16.23;;;0.00;99.90;;;;;;4967823;28;20050;-76
2021/03/05 07:37:37;;;;;;;25.27;18.15;;;-0.10;99.90;;;;;;4957294;28;20475;-76
2021/03/05 07:40:06;;;;;;;24.80;17.92;;;-0.10;99.90;;;;;;4959756;28;20062;-76
2021/03/05 07:42:33;;;;;;;34.70;18.17;;;0.00;99.90;;;;;;4987105;28;20129;-76
2021/03/05 07:45:02;;;;;;;28.95;16.20;;;0.10;99.90;;;;;;4968402;28;20042;-76
2021/03/05 07:47:32;;;;;;;30.52;18.02;;;0.20;99.90;;;;;;5001964;28;20061;-76
2021/03/05 07:49:59;;;;;;;23.58;17.27;;;0.10;99.90;;;;;;4980417;28;20138;-76
2021/03/05 07:52:27;;;;;;;24.27;17.17;;;0.10;99.90;;;;;;4984222;28;20054;-77
2021/03/05 07:54:54;;;;;;;17.05;13.93;;;0.20;99.90;;;;;;4965451;28;20061;-76
2021/03/05 07:57:24;;;;;;;23.67;15.40;;;0.10;99.90;;;;;;4972616;28;20687;-76
2021/03/05 07:59:52;;;;;;;26.98;16.58;;;0.20;99.90;;;;;;4968608;28;20057;-76
2021/03/05 08:02:19;;;;;;;17.65;15.07;;;0.20;99.90;;;;;;4950565;28;20054;-75
2021/03/05 08:07:26;;;;;;;18.13;14.38;;;0.10;99.90;;;;;;4982895;28;20054;-76
2021/03/05 08:09:53;;;;;;;22.85;16.67;;;0.10;99.90;;;;;;4984651;28;20474;-76
2021/03/05 08:12:28;;;;;;;23.30;16.52;;;0.00;99.90;;;;;;4981026;28;20079;-77
2021/03/05 08:15:07;;;;;;;21.95;16.48;;;0.10;99.90;;;;;;4972822;28;20064;-76
2021/03/05 08:17:44;;;;;;;20.85;16.38;;;0.20;99.90;;;;;;4971057;28;20074;-77
2021/03/05 08:20:33;;;;;;;23.67;15.93;;;0.10;99.90;;;;;;4992266;28;20046;-76
2021/03/05 08:23:01;;;;;;;19.45;16.13;;;0.20;99.90;;;;;;4985393;28;20078;-77
2021/03/05 08:25:33;;;;;;;17.58;15.50;;;0.20;99.90;;;;;;4964701;28;20077;-76
2021/03/05 08:28:01;;;;;;;20.00;16.58;;;0.10;99.90;;;;;;4982743;28;20050;-77
2021/03/05 08:30:33;;;;;;;17.25;15.10;;;0.10;99.90;;;;;;4988956;28;20042;-78
2021/03/05 08:33:03;;;;;;;21.80;16.77;;;0.10;99.90;;;;;;4971350;28;20137;-76
2021/03/05 08:35:31;;;;;;;22.30;18.13;;;0.20;99.90;;;;;;4972029;28;20117;-76
2021/03/05 08:38:13;;;;;;;18.25;16.38;;;0.30;99.90;;;;;;4984237;28;20051;-74
2021/03/05 08:40:48;;;;;;;19.42;17.25;;;0.40;99.90;;;;;;4978390;28;20514;-74
2021/03/05 08:43:25;;;;;;;19.48;17.52;;;0.40;99.90;;;;;;4970410;28;20108;-74
2021/03/05 08:45:54;;;;;;;21.38;17.00;;;0.50;99.90;;;;;;4971565;28;20064;-76
2021/03/05 08:48:45;;;;;;;23.83;18.95;;;0.30;99.90;;;;;;4987467;28;20057;-76
2021/03/05 08:51:17;;;;;;;20.60;17.60;;;0.40;99.90;;;;;;4982602;28;20054;-74
2021/03/05 08:53:49;;;;;;;19.17;17.25;;;0.30;99.90;;;;;;4985658;28;20751;-74
2021/03/05 08:56:27;;;;;;;19.33;17.17;;;0.30;99.90;;;;;;4971145;28;20485;-76
2021/03/05 08:59:05;;;;;;;18.50;16.52;;;0.30;99.90;;;;;;4980173;28;20644;-75
2021/03/05 09:01:31;;;;;;;20.92;16.90;;;0.40;99.90;;;;;;4954200;28;20046;-74
2021/03/05 09:04:15;;;;;;;20.27;18.27;;;0.30;99.90;;;;;;4983735;28;20059;-75
2021/03/05 09:06:56;;;;;;;19.45;14.57;;;0.30;99.90;;;;;;4967660;28;20145;-75
2021/03/05 09:09:33;;;;;;;24.65;17.05;;;0.40;99.90;;;;;;4986602;28;20062;-76
2021/03/05 09:12:18;;;;;;;24.73;17.83;;;0.50;99.90;;;;;;5000577;28;20499;-76
2021/03/05 09:14:57;;;;;;;20.30;18.30;;;0.70;99.90;;;;;;4984520;28;20039;-76
2021/03/05 09:17:23;;;;;;;18.83;15.40;;;0.90;99.90;;;;;;4984884;28;20372;-76
2021/03/05 09:19:50;;;;;;;23.35;17.23;;;0.80;99.90;;;;;;4971908;28;20054;-76
2021/03/05 09:22:18;;;;;;;19.13;17.48;;;1.10;99.90;;;;;;4972959;28;20137;-76
2021/03/05 09:24:53;;;;;;;20.08;18.23;;;1.30;99.90;;;;;;4985596;28;20054;-76
2021/03/05 09:27:26;;;;;;;19.83;17.83;;;0.90;99.90;;;;;;4986475;28;20054;-76
2021/03/05 09:29:54;;;;;;;20.20;18.33;;;0.80;99.90;;;;;;4984058;28;20047;-75
2021/03/05 09:32:22;;;;;;;19.73;18.38;;;0.90;99.90;;;;;;4954571;28;20578;-75
2021/03/05 09:34:59;;;;;;;19.80;18.00;;;0.80;99.90;;;;;;4990661;28;20524;-75
2021/03/05 09:37:28;;;;;;;24.83;18.75;;;0.80;99.90;;;;;;4989779;28;20046;-76
2021/03/05 09:39:58;;;;;;;21.25;19.60;;;1.20;99.90;;;;;;4961338;28;20114;-77
2021/03/05 09:42:47;;;;;;;23.23;20.02;;;1.50;99.90;;;;;;4994655;28;20051;-76
2021/03/05 09:45:38;;;;;;;19.15;17.65;;;2.00;99.90;;;;;;4985874;28;20048;-75
2021/03/05 09:48:27;;;;;;;19.20;17.90;;;1.80;99.90;;;;;;4994144;28;20056;-76
2021/03/05 09:51:07;;;;;;;18.83;17.48;;;1.60;99.90;;;;;;4995236;28;20137;-75
2021/03/05 09:53:35;;;;;;;19.38;17.45;;;1.50;99.90;;;;;;4971520;28;20050;-76
2021/03/05 09:56:03;;;;;;;18.75;17.38;;;1.70;99.90;;;;;;4966507;28;20039;-73
2021/03/05 09:58:30;;;;;;;19.63;17.95;;;1.90;99.90;;;;;;4967390;28;20043;-74
2021/03/05 10:00:57;;;;;;;19.73;17.95;;;2.10;99.90;;;;;;4967200;28;20039;-74
2021/03/05 10:03:24;;;;;;;19.60;18.30;;;2.20;99.90;;;;;;4979377;28;20049;-75
2021/03/05 10:05:52;;;;;;;20.70;18.75;;;2.60;99.90;;;;;;4996813;28;20505;-76
2021/03/05 10:08:21;;;;;;;21.42;19.48;;;2.60;99.90;;;;;;4998784;28;20062;-74
2021/03/05 10:10:54;;;;;;;20.48;19.08;;;2.50;99.90;;;;;;4968850;28;20568;-75
2021/03/05 10:13:37;;;;;;;20.63;18.95;;;2.90;99.90;;;;;;4969271;28;20447;-75
2021/03/05 10:16:13;;;;;;;19.38;17.98;;;3.10;99.90;;;;;;4953075;28;20057;-76
2021/03/05 10:18:41;;;;;;;18.65;17.25;;;3.60;99.90;;;;;;4986170;28;20042;-76
2021/03/05 10:21:12;;;;;;;18.85;17.55;;;3.60;99.90;;;;;;5005420;28;20046;-75
2021/03/05 10:23:39;;;;;;;19.33;18.05;;;3.50;99.90;;;;;;4999781;28;20077;-74
2021/03/05 10:26:14;;;;;;;18.27;17.10;;;3.60;99.90;;;;;;4989182;28;20058;-75
2021/03/05 10:28:40;;;;;;;19.42;17.58;;;2.60;99.90;;;;;;4990289;28;20046;-74
2021/03/05 10:31:07;;;;;;;19.15;17.85;;;2.80;99.90;;;;;;4985286;28;20538;-75
2021/03/05 10:33:42;;;;;;;19.38;18.08;;;3.40;99.90;;;;;;4984887;28;20054;-74
2021/03/05 10:36:10;;;;;;;18.90;17.60;;;3.50;99.90;;;;;;4966116;28;20050;-75
2021/03/05 10:38:37;;;;;;;19.30;18.02;;;3.40;99.90;;;;;;4962187;28;20104;-74
2021/03/05 10:41:05;;;;;;;18.65;17.45;;;3.70;99.90;;;;;;4984902;28;20042;-74
2021/03/05 10:43:37;;;;;;;18.73;17.42;;;3.80;99.90;;;;;;4983669;28;20105;-75
2021/03/05 10:46:04;;;;;;;17.45;16.45;;;3.10;99.90;;;;;;4999719;28;20061;-75
2021/03/05 10:48:30;;;;;;;17.88;16.85;;;2.80;99.90;;;;;;4968446;28;20064;-76
2021/03/05 10:50:57;;;;;;;18.33;17.20;;;2.80;99.90;;;;;;4964286;28;20077;-75
2021/03/05 10:53:23;;;;;;;19.65;18.15;;;2.90;99.90;;;;;;4978645;28;20058;-76
2021/03/05 10:55:50;;;;;;;16.98;16.00;;;3.10;99.90;;;;;;5006926;28;20050;-76
2021/03/05 10:58:18;;;;;;;17.55;16.63;;;3.00;99.90;;;;;;4976941;28;20549;-75
2021/03/05 11:00:46;;;;;;;17.55;16.48;;;2.80;99.90;;;;;;4985580;28;20041;-76
2021/03/05 11:03:14;;;;;;;17.92;16.77;;;3.10;99.90;;;;;;4968784;28;20065;-75
2021/03/05 11:05:40;;;;;;;17.85;16.63;;;3.30;99.90;;;;;;4968356;28;20133;-75
2021/03/05 11:08:07;;;;;;;18.45;17.35;;;4.00;99.90;;;;;;4970065;28;20482;-76
2021/03/05 11:10:33;;;;;;;18.20;16.77;;;4.40;99.90;;;;;;4967752;28;20039;-75
2021/03/05 11:13:01;;;;;;;17.85;16.35;;;4.00;99.90;;;;;;4983998;28;20046;-75
2021/03/05 11:15:27;;;;;;;18.08;16.88;;;3.40;99.90;;;;;;4968489;28;20048;-77
2021/03/05 11:17:54;;;;;;;17.48;16.30;;;2.80;99.90;;;;;;4965304;28;20057;-75
2021/03/05 11:20:20;;;;;;;18.65;17.45;;;2.80;99.90;;;;;;4982872;28;20137;-76
2021/03/05 11:22:47;;;;;;;18.98;17.67;;;2.90;99.90;;;;;;4955010;28;20065;-76
2021/03/05 11:25:13;;;;;;;17.63;16.40;;;3.20;99.90;;;;;;5002050;28;20120;-76
2021/03/05 11:27:39;;;;;;;16.52;15.73;;;3.70;99.90;;;;;;4960048;28;20061;-76
2021/03/05 11:30:06;;;;;;;17.15;16.15;;;3.90;99.90;;;;;;4968253;28;20123;-76
2021/03/05 11:32:34;;;;;;;15.52;14.63;;;4.00;99.90;;;;;;4969668;28;20042;-76
2021/03/05 11:35:01;;;;;;;16.45;15.48;;;4.20;99.90;;;;;;4985104;28;20146;-75
2021/03/05 11:37:28;;;;;;;16.05;15.00;;;3.50;99.90;;;;;;4985265;28;20056;-76
2021/03/05 11:39:56;;;;;;;16.55;15.63;;;3.10;99.90;;;;;;4981116;28;20125;-74
2021/03/05 11:42:23;;;;;;;16.60;15.70;;;2.90;99.90;;;;;;4979798;28;20054;-76
2021/03/05 11:44:50;;;;;;;16.90;15.90;;;3.20;99.90;;;;;;4986100;28;20061;-74
2021/03/05 11:47:17;;;;;;;16.20;15.40;;;3.60;99.90;;;;;;4973630;28;20525;-74
2021/03/05 11:49:43;;;;;;;16.55;15.40;;;3.30;99.90;;;;;;4972536;28;20057;-76
2021/03/05 11:52:10;;;;;;;15.90;15.05;;;2.90;99.90;;;;;;4968972;28;20060;-74
2021/03/05 11:54:37;;;;;;;16.23;15.43;;;3.30;99.90;;;;;;4974044;28;20042;-75
2021/03/05 11:57:03;;;;;;;15.30;14.50;;;3.60;99.90;;;;;;4989157;28;20045;-74
2021/03/05 11:59:30;;;;;;;16.30;15.50;;;3.60;99.90;;;;;;4994150;28;20052;-75
2021/03/05 12:01:58;;;;;;;17.00;15.80;;;4.10;99.90;;;;;;4987068;28;20042;-74
2021/03/05 12:04:24;;;;;;;17.77;16.70;;;4.60;99.90;;;;;;4974216;28;20049;-75
2021/03/05 12:06:51;;;;;;;16.88;15.38;;;4.60;99.90;;;;;;4966576;28;20050;-74
2021/03/05 12:09:18;;;;;;;16.02;15.13;;;4.70;99.90;;;;;;4988065;28;20467;-75
2021/03/05 12:11:44;;;;;;;16.35;15.15;;;5.10;99.90;;;;;;4974145;28;20141;-75
2021/03/05 12:14:12;;;;;;;16.52;15.63;;;5.20;99.90;;;;;;4972298;28;20057;-75
2021/03/05 12:16:38;;;;;;;15.10;14.40;;;5.10;99.90;;;;;;4951860;28;20039;-74
2021/03/05 12:19:05;;;;;;;16.70;15.65;;;4.90;99.90;;;;;;4985714;28;20058;-75
2021/03/05 12:21:31;;;;;;;16.65;15.60;;;4.70;99.90;;;;;;5001901;28;20501;-75
2021/03/05 12:23:58;;;;;;;15.93;14.93;;;4.80;99.90;;;;;;4975529;28;20057;-75
2021/03/05 12:26:24;;;;;;;16.33;15.52;;;5.30;99.90;;;;;;4980518;28;20124;-75
2021/03/05 12:28:50;;;;;;;16.08;15.27;;;5.20;99.90;;;;;;4984506;28;20078;-75
2021/03/05 12:31:16;;;;;;;15.70;14.60;;;5.00;99.90;;;;;;4968825;28;20053;-74
2021/03/05 12:33:43;;;;;;;15.80;14.90;;;5.00;99.90;;;;;;4985788;28;20054;-75
2021/03/05 12:36:11;;;;;;;14.68;14.07;;;4.80;99.90;;;;;;4989816;28;20066;-78
2021/03/05 12:38:38;;;;;;;15.40;14.50;;;5.10;99.90;;;;;;4988911;28;20058;-75
2021/03/05 12:41:05;;;;;;;14.85;13.73;;;4.70;99.90;;;;;;4970983;28;20053;-75
2021/03/05 12:43:31;;;;;;;15.63;14.88;;;5.00;99.90;;;;;;4987294;28;20053;-75
2021/03/05 12:45:59;;;;;;;15.85;14.90;;;5.20;99.90;;;;;;4986538;28;20149;-75
2021/03/05 12:48:41;;;;;;;16.20;15.07;;;5.20;99.90;;;;;;4975554;28;20046;-75
2021/03/05 12:51:08;;;;;;;16.08;15.27;;;5.20;99.90;;;;;;4976839;28;20050;-75
2021/03/05 12:53:34;;;;;;;15.95;14.73;;;5.60;99.90;;;;;;4986491;28;20086;-75